createdAt,value
2017-12-17T00:01:43.817Z,4.10
2017-12-17T00:04:11.356Z,4.10
2017-12-17T00:06:38.873Z,4.10
2017-12-17T00:09:06.324Z,4.10
2017-12-17T00:11:34.561Z,4.10
2017-12-17T00:14:02.018Z,4.00
2017-12-17T00:16:29.577Z,4.10
2017-12-17T00:18:57.024Z,4.10
2017-12-17T00:21:24.552Z,4.20
2017-12-17T00:23:52.097Z,4.20
2017-12-17T00:26:19.658Z,4.20
2017-12-17T00:28:47.112Z,4.10
2017-12-17T00:31:14.577Z,4.10
2017-12-17T00:33:42.116Z,4.20
2017-12-17T00:36:09.571Z,4.10
2017-12-17T00:38:37.038Z,4.10
2017-12-17T00:41:04.486Z,4.10
2017-12-17T00:43:31.949Z,4.00
2017-12-17T00:45:59.404Z,4.10
2017-12-17T00:48:26.870Z,4.10
2017-12-17T00:50:54.324Z,4.20
2017-12-17T00:53:21.779Z,4.10
2017-12-17T00:55:49.223Z,4.10
2017-12-17T00:58:16.851Z,4.10
2017-12-17T01:00:44.292Z,4.10
2017-12-17T01:03:11.773Z,4.20
2017-12-17T01:05:39.228Z,4.10
2017-12-17T01:08:06.700Z,4.10
2017-12-17T01:10:34.152Z,4.10
2017-12-17T01:13:01.629Z,4.20
2017-12-17T01:15:29.084Z,4.10
2017-12-17T01:17:56.541Z,4.10
2017-12-17T01:20:24.000Z,4.10
2017-12-17T01:22:51.464Z,4.20
2017-12-17T01:25:19.012Z,4.20
2017-12-17T01:27:47.977Z,4.10
2017-12-17T01:30:15.446Z,4.10
2017-12-17T01:32:42.897Z,4.10
2017-12-17T01:35:10.385Z,4.00
2017-12-17T01:37:37.928Z,4.00
2017-12-17T01:40:05.488Z,3.90
2017-12-17T01:42:32.961Z,3.90
2017-12-17T01:45:00.499Z,3.80
2017-12-17T01:47:27.961Z,3.90
2017-12-17T01:49:55.426Z,4.00
2017-12-17T01:52:22.981Z,4.00
2017-12-17T01:54:50.545Z,4.00
2017-12-17T01:57:18.159Z,4.00
2017-12-17T01:59:45.605Z,4.00
2017-12-17T02:02:13.109Z,3.90
2017-12-17T02:04:40.569Z,3.90
2017-12-17T02:07:08.025Z,4.00
2017-12-17T02:09:35.472Z,4.00
2017-12-17T02:12:02.933Z,4.10
2017-12-17T02:14:30.380Z,4.10
2017-12-17T02:16:58.014Z,4.10
2017-12-17T02:19:25.520Z,4.10
2017-12-17T02:21:52.975Z,4.10
2017-12-17T02:24:20.438Z,4.10
2017-12-17T02:26:47.884Z,4.10
2017-12-17T02:29:15.349Z,4.10
2017-12-17T02:31:42.905Z,4.20
2017-12-17T02:34:10.359Z,4.20
2017-12-17T02:36:38.013Z,4.30
2017-12-17T02:39:05.472Z,4.30
2017-12-17T02:41:32.947Z,4.30
2017-12-17T02:44:00.401Z,4.20
2017-12-17T02:46:28.657Z,4.10
2017-12-17T02:48:56.117Z,4.10
2017-12-17T02:51:23.670Z,4.00
2017-12-17T02:53:51.149Z,4.00
2017-12-17T02:56:19.372Z,3.90
2017-12-17T02:58:46.883Z,3.90
2017-12-17T03:01:15.108Z,4.00
2017-12-17T03:03:42.556Z,4.00
2017-12-17T03:06:10.048Z,4.00
2017-12-17T03:08:37.538Z,4.00
2017-12-17T03:11:05.784Z,3.90
2017-12-17T03:13:33.347Z,3.80
2017-12-17T03:16:00.958Z,3.80
2017-12-17T03:18:28.400Z,3.80
2017-12-17T03:20:55.881Z,3.80
2017-12-17T03:23:23.369Z,3.90
2017-12-17T03:25:50.935Z,3.90
2017-12-17T03:28:18.389Z,3.90
2017-12-17T03:30:45.889Z,3.90
2017-12-17T03:33:13.409Z,3.90
2017-12-17T03:35:40.860Z,3.90
2017-12-17T03:38:08.321Z,3.90
2017-12-17T03:40:35.877Z,4.00
2017-12-17T03:43:03.338Z,4.00
2017-12-17T03:45:30.794Z,4.00
2017-12-17T03:47:58.347Z,4.00
2017-12-17T03:50:25.797Z,3.90
2017-12-17T03:52:53.251Z,3.90
2017-12-17T03:55:20.712Z,3.80
2017-12-17T03:57:48.168Z,3.70
2017-12-17T04:00:15.631Z,3.70
2017-12-17T04:02:43.088Z,3.80
2017-12-17T04:05:10.644Z,3.80
2017-12-17T04:07:38.208Z,3.80
2017-12-17T04:10:05.657Z,3.80
2017-12-17T04:12:33.113Z,3.80
2017-12-17T04:15:00.567Z,3.80
2017-12-17T04:17:28.021Z,3.80
2017-12-17T04:19:55.504Z,3.80
2017-12-17T04:22:22.957Z,3.80
2017-12-17T04:24:50.510Z,3.90
2017-12-17T04:27:17.973Z,3.90
2017-12-17T04:29:45.510Z,3.80
2017-12-17T04:32:12.957Z,3.70
2017-12-17T04:34:40.425Z,3.50
2017-12-17T04:37:07.880Z,3.40
2017-12-17T04:39:35.345Z,3.50
2017-12-17T04:42:02.902Z,3.50
2017-12-17T04:44:30.383Z,3.40
2017-12-17T04:46:58.627Z,3.30
2017-12-17T04:49:26.076Z,3.20
2017-12-17T04:51:53.648Z,3.20
2017-12-17T04:54:21.195Z,3.20
2017-12-17T04:56:48.817Z,3.00
2017-12-17T04:59:16.273Z,2.90
2017-12-17T05:01:43.767Z,2.90
2017-12-17T05:04:11.224Z,3.00
2017-12-17T05:06:38.684Z,3.00
2017-12-17T05:09:06.135Z,3.10
2017-12-17T05:11:33.586Z,3.10
2017-12-17T05:14:01.110Z,3.00
2017-12-17T05:16:28.568Z,3.00
2017-12-17T05:18:56.081Z,3.10
2017-12-17T05:21:23.537Z,3.00
2017-12-17T05:23:51.097Z,3.00
2017-12-17T05:26:18.552Z,3.00
2017-12-17T05:28:46.014Z,3.10
2017-12-17T05:31:13.476Z,3.10
2017-12-17T05:33:40.943Z,3.10
2017-12-17T05:36:09.170Z,3.20
2017-12-17T05:38:36.625Z,3.20
2017-12-17T05:41:04.100Z,3.30
2017-12-17T05:43:31.561Z,3.30
2017-12-17T05:45:59.121Z,3.40
2017-12-17T05:48:26.676Z,3.50
2017-12-17T05:50:54.241Z,3.50
2017-12-17T05:53:21.696Z,3.40
2017-12-17T05:55:49.154Z,3.40
2017-12-17T05:58:16.717Z,3.50
2017-12-17T06:00:44.265Z,3.50
2017-12-17T06:03:11.825Z,3.50
2017-12-17T06:05:39.267Z,3.50
2017-12-17T06:08:06.725Z,3.40
2017-12-17T06:10:34.180Z,3.40
2017-12-17T06:13:01.758Z,3.50
2017-12-17T06:15:29.200Z,3.50
2017-12-17T06:17:56.657Z,3.40
2017-12-17T06:20:24.116Z,3.30
2017-12-17T06:22:51.577Z,3.30
2017-12-17T06:25:19.030Z,3.30
2017-12-17T06:27:46.498Z,3.30
2017-12-17T06:30:14.049Z,3.30
2017-12-17T06:32:41.501Z,3.30
2017-12-17T06:35:08.968Z,3.40
2017-12-17T06:37:36.420Z,3.40
2017-12-17T06:40:03.872Z,3.40
2017-12-17T06:42:31.332Z,3.40
2017-12-17T06:44:58.854Z,3.40
2017-12-17T06:47:26.353Z,3.50
2017-12-17T06:49:53.829Z,3.60
2017-12-17T06:52:22.048Z,3.60
2017-12-17T06:54:49.512Z,3.50
2017-12-17T06:57:16.969Z,3.60
2017-12-17T06:59:44.453Z,3.50
2017-12-17T07:02:11.912Z,3.50
2017-12-17T07:04:39.460Z,3.50
2017-12-17T07:07:07.025Z,3.50
2017-12-17T07:09:34.593Z,3.50
2017-12-17T07:12:02.145Z,3.50
2017-12-17T07:14:29.592Z,3.40
2017-12-17T07:16:57.053Z,3.40
2017-12-17T07:19:24.514Z,3.40
2017-12-17T07:21:51.976Z,3.40
2017-12-17T07:24:19.524Z,3.50
2017-12-17T07:26:46.980Z,3.50
2017-12-17T07:29:14.428Z,3.50
2017-12-17T07:31:41.901Z,3.50
2017-12-17T07:34:09.348Z,3.60
2017-12-17T07:36:36.904Z,3.70
2017-12-17T07:39:04.365Z,3.70
2017-12-17T07:41:31.809Z,3.80
2017-12-17T07:43:59.266Z,3.80
2017-12-17T07:46:26.716Z,3.80
2017-12-17T07:48:54.176Z,3.70
2017-12-17T07:51:21.652Z,3.70
2017-12-17T07:53:49.929Z,3.70
2017-12-17T07:56:17.547Z,3.60
2017-12-17T07:58:44.996Z,3.60
2017-12-17T08:01:12.459Z,3.60
2017-12-17T08:03:39.940Z,3.60
2017-12-17T08:06:07.393Z,3.50
2017-12-17T08:08:34.883Z,3.50
2017-12-17T08:11:03.140Z,3.40
2017-12-17T08:13:30.601Z,3.40
2017-12-17T08:15:58.164Z,3.40
2017-12-17T08:18:25.616Z,3.40
2017-12-17T08:20:54.616Z,3.50
2017-12-17T08:23:22.171Z,3.50
2017-12-17T08:25:49.733Z,3.60
2017-12-17T08:28:17.192Z,3.60
2017-12-17T08:30:44.648Z,3.70
2017-12-17T08:33:12.104Z,3.70
2017-12-17T08:35:39.564Z,3.70
2017-12-17T08:38:07.112Z,3.70
2017-12-17T08:40:34.672Z,3.60
2017-12-17T08:43:02.231Z,3.60
2017-12-17T08:45:29.688Z,3.60
2017-12-17T08:47:57.151Z,3.60
2017-12-17T08:50:24.721Z,3.60
2017-12-17T08:52:52.262Z,3.60
2017-12-17T08:55:19.733Z,3.60
2017-12-17T08:57:47.273Z,3.60
2017-12-17T09:00:14.833Z,3.60
2017-12-17T09:02:42.316Z,3.60
2017-12-17T09:05:10.541Z,3.70
2017-12-17T09:07:37.992Z,3.60
2017-12-17T09:10:05.541Z,3.60
2017-12-17T09:12:32.997Z,3.60
2017-12-17T09:15:00.521Z,3.70
2017-12-17T09:17:27.952Z,3.90
2017-12-17T09:19:55.441Z,3.90
2017-12-17T09:22:23.775Z,3.90
2017-12-17T09:24:51.221Z,3.90
2017-12-17T09:27:18.677Z,4.10
2017-12-17T09:29:46.133Z,4.20
2017-12-17T09:32:13.617Z,4.10
2017-12-17T09:34:41.176Z,4.00
2017-12-17T09:37:08.639Z,3.90
2017-12-17T09:39:36.095Z,3.80
2017-12-17T09:42:03.665Z,3.60
2017-12-17T09:44:31.955Z,3.40
2017-12-17T09:46:59.370Z,3.40
2017-12-17T09:49:26.829Z,3.40
2017-12-17T09:51:54.295Z,3.40
2017-12-17T09:54:21.765Z,3.50
2017-12-17T09:56:50.017Z,3.40
2017-12-17T09:59:17.475Z,3.40
2017-12-17T10:01:44.934Z,3.40
2017-12-17T10:04:13.401Z,3.40
2017-12-17T10:06:40.902Z,3.40
2017-12-17T10:09:09.137Z,3.30
2017-12-17T10:11:36.589Z,3.30
2017-12-17T10:14:04.057Z,3.40
2017-12-17T10:16:31.617Z,3.40
2017-12-17T10:18:59.899Z,3.30
2017-12-17T10:21:27.349Z,3.30
2017-12-17T10:23:54.909Z,3.30
2017-12-17T10:26:23.140Z,3.50
2017-12-17T10:28:50.601Z,3.40
2017-12-17T10:31:18.061Z,3.60
2017-12-17T10:33:45.549Z,3.70
2017-12-17T10:36:13.122Z,3.60
2017-12-17T10:38:40.569Z,3.70
2017-12-17T10:41:08.047Z,3.90
2017-12-17T10:43:35.522Z,3.90
2017-12-17T10:46:03.859Z,3.80
2017-12-17T10:48:31.315Z,3.80
2017-12-17T10:50:58.768Z,3.70
2017-12-17T10:53:26.333Z,3.60
2017-12-17T10:55:53.892Z,3.50
2017-12-17T10:58:21.464Z,3.60
2017-12-17T11:00:48.925Z,3.70
2017-12-17T11:03:17.176Z,3.90
2017-12-17T11:05:44.800Z,3.80
2017-12-17T11:08:12.396Z,4.00
2017-12-17T11:10:39.957Z,4.10
2017-12-17T11:13:07.521Z,4.10
2017-12-17T11:15:35.077Z,4.20
2017-12-17T11:18:02.549Z,4.30
2017-12-17T11:20:30.006Z,4.50
2017-12-17T11:22:57.477Z,4.60
2017-12-17T11:25:25.688Z,4.90
2017-12-17T11:27:53.156Z,4.80
2017-12-17T11:30:20.612Z,4.80
2017-12-17T11:32:48.056Z,4.70
2017-12-17T11:35:15.516Z,4.30
2017-12-17T11:37:42.970Z,4.10
2017-12-17T11:40:10.424Z,3.90
2017-12-17T11:42:37.893Z,3.80
2017-12-17T11:45:05.602Z,3.80
2017-12-17T11:47:33.819Z,3.70
2017-12-17T11:50:01.367Z,3.60
2017-12-17T11:52:28.894Z,3.70
2017-12-17T11:54:57.274Z,3.90
2017-12-17T11:57:25.527Z,4.00
2017-12-17T11:59:53.781Z,4.00
2017-12-17T12:02:21.232Z,4.00
2017-12-17T12:04:48.701Z,4.00
2017-12-17T12:07:16.151Z,4.00
2017-12-17T12:09:43.635Z,4.00
2017-12-17T12:12:11.102Z,4.00
2017-12-17T12:14:39.321Z,3.80
2017-12-17T12:17:06.805Z,3.80
2017-12-17T12:19:34.274Z,3.70
2017-12-17T12:22:01.821Z,3.70
2017-12-17T12:24:29.268Z,3.60
2017-12-17T12:26:56.848Z,3.60
2017-12-17T12:29:25.076Z,3.40
2017-12-17T12:31:52.564Z,3.30
2017-12-17T12:34:20.140Z,3.40
2017-12-17T12:36:47.785Z,3.30
2017-12-17T12:39:15.234Z,3.30
2017-12-17T12:41:42.768Z,3.30
2017-12-17T12:44:10.223Z,3.30
2017-12-17T12:46:37.722Z,3.30
2017-12-17T12:49:05.171Z,3.40
2017-12-17T12:51:32.644Z,3.50
2017-12-17T12:54:00.144Z,3.60
2017-12-17T12:56:27.664Z,3.60
2017-12-17T12:58:55.204Z,3.60
2017-12-17T13:01:22.656Z,3.60
2017-12-17T13:03:50.268Z,3.60
2017-12-17T13:06:17.845Z,3.70
2017-12-17T13:08:45.293Z,3.70
2017-12-17T13:11:12.744Z,3.70
2017-12-17T13:13:53.775Z,3.60
2017-12-17T13:16:21.224Z,3.70
2017-12-17T13:18:48.780Z,3.70
2017-12-17T13:21:16.241Z,3.70
2017-12-17T13:23:43.697Z,3.80
2017-12-17T13:26:11.260Z,3.90
2017-12-17T13:28:38.816Z,3.90
2017-12-17T13:31:06.268Z,3.80
2017-12-17T13:33:33.734Z,3.90
2017-12-17T13:36:01.193Z,3.80
2017-12-17T13:38:28.697Z,3.80
2017-12-17T13:40:56.151Z,3.90
2017-12-17T13:43:23.639Z,3.90
2017-12-17T13:45:51.098Z,3.80
2017-12-17T13:48:18.557Z,3.80
2017-12-17T13:50:46.092Z,3.80
2017-12-17T13:53:13.565Z,3.70
2017-12-17T13:55:41.107Z,3.60
2017-12-17T13:58:08.600Z,3.50
2017-12-17T14:00:36.155Z,3.70
2017-12-17T14:03:03.609Z,3.70
2017-12-17T14:05:31.068Z,3.70
2017-12-17T14:07:58.520Z,3.80
2017-12-17T14:10:26.029Z,3.90
2017-12-17T14:12:53.544Z,3.90
2017-12-17T14:15:20.996Z,3.90
2017-12-17T14:17:48.468Z,3.80
2017-12-17T14:20:16.015Z,3.80
2017-12-17T14:22:43.573Z,3.80
2017-12-17T14:25:11.052Z,3.70
2017-12-17T14:27:39.268Z,3.60
2017-12-17T14:30:06.724Z,3.60
2017-12-17T14:32:34.184Z,3.60
2017-12-17T14:35:01.637Z,3.60
2017-12-17T14:37:29.119Z,3.50
2017-12-17T14:39:56.577Z,3.50
2017-12-17T14:42:24.032Z,3.60
2017-12-17T14:44:51.485Z,3.70
2017-12-17T14:47:18.944Z,3.80
2017-12-17T14:49:46.396Z,3.80
2017-12-17T14:52:13.870Z,3.90
2017-12-17T14:54:41.423Z,3.80
2017-12-17T14:57:08.933Z,3.80
2017-12-17T14:59:36.344Z,3.80
2017-12-17T15:02:03.804Z,3.70
2017-12-17T15:04:31.261Z,3.70
2017-12-17T15:06:58.731Z,3.70
2017-12-17T15:09:26.985Z,3.70
2017-12-17T15:11:54.601Z,3.60
2017-12-17T15:14:22.056Z,3.70
2017-12-17T15:16:49.564Z,3.60
2017-12-17T15:19:17.016Z,3.60
2017-12-17T15:21:44.490Z,3.60
2017-12-17T15:24:11.949Z,3.50
2017-12-17T15:26:39.405Z,3.60
2017-12-17T15:29:06.874Z,3.60
2017-12-17T15:31:35.107Z,3.60
2017-12-17T15:34:02.575Z,3.60
2017-12-17T15:36:30.036Z,3.70
2017-12-17T15:38:57.492Z,3.70
2017-12-17T15:41:24.949Z,3.60
2017-12-17T15:43:52.504Z,3.60
2017-12-17T15:46:19.952Z,3.60
2017-12-17T15:48:47.418Z,3.60
2017-12-17T15:51:15.652Z,3.80
2017-12-17T15:53:43.106Z,3.70
2017-12-17T15:56:10.569Z,3.70
2017-12-17T15:58:38.025Z,3.80
2017-12-17T16:01:05.480Z,3.80
2017-12-17T16:03:32.972Z,3.80
2017-12-17T16:06:00.428Z,3.90
2017-12-17T16:08:27.879Z,3.80
2017-12-17T16:10:55.508Z,3.80
2017-12-17T16:13:22.965Z,3.80
2017-12-17T16:15:50.456Z,3.90
2017-12-17T16:18:17.917Z,3.80
2017-12-17T16:20:45.433Z,3.80
2017-12-17T16:23:12.880Z,3.70
2017-12-17T16:25:40.336Z,3.60
2017-12-17T16:28:07.793Z,3.70
2017-12-17T16:30:35.256Z,3.60
2017-12-17T16:33:02.765Z,3.50
2017-12-17T16:35:30.216Z,3.50
2017-12-17T16:37:57.768Z,3.60
2017-12-17T16:40:25.260Z,3.70
2017-12-17T16:42:53.472Z,3.70
2017-12-17T16:45:20.965Z,3.70
2017-12-17T16:47:48.415Z,3.70
2017-12-17T16:50:15.878Z,3.80
2017-12-17T16:52:43.433Z,3.80
2017-12-17T16:55:10.889Z,3.80
2017-12-17T16:57:38.444Z,3.80
2017-12-17T17:00:05.900Z,3.90
2017-12-17T17:02:33.469Z,3.90
2017-12-17T17:05:00.920Z,3.90
2017-12-17T17:07:28.473Z,3.80
2017-12-17T17:09:55.929Z,3.70
2017-12-17T17:12:23.501Z,3.70
2017-12-17T17:14:50.975Z,3.70
2017-12-17T17:17:19.217Z,3.70
2017-12-17T17:19:46.662Z,3.70
2017-12-17T17:22:14.121Z,3.70
2017-12-17T17:24:41.586Z,3.60
2017-12-17T17:27:09.053Z,3.60
2017-12-17T17:29:36.509Z,3.60
2017-12-17T17:32:03.970Z,3.70
2017-12-17T17:34:31.520Z,3.70
2017-12-17T17:36:59.081Z,3.70
2017-12-17T17:39:26.537Z,3.70
2017-12-17T17:41:54.029Z,3.60
2017-12-17T17:44:22.373Z,3.50
2017-12-17T17:46:49.836Z,3.50
2017-12-17T17:49:17.294Z,3.50
2017-12-17T17:51:44.744Z,3.40
2017-12-17T17:54:13.704Z,3.40
2017-12-17T17:56:41.196Z,3.40
2017-12-17T17:59:08.652Z,3.50
2017-12-17T18:01:36.105Z,3.50
2017-12-17T18:04:03.702Z,3.50
2017-12-17T18:06:31.229Z,3.50
2017-12-17T18:08:58.684Z,3.40
2017-12-17T18:11:26.140Z,3.40
2017-12-17T18:13:55.100Z,3.50
2017-12-17T18:16:22.774Z,3.50
2017-12-17T18:18:50.216Z,3.60
2017-12-17T18:21:17.704Z,3.70
2017-12-17T18:23:46.185Z,3.70
2017-12-17T18:26:13.636Z,3.60
2017-12-17T18:28:41.860Z,3.70
2017-12-17T18:31:09.335Z,3.60
2017-12-17T18:33:36.932Z,3.70
2017-12-17T18:36:04.398Z,3.80
2017-12-17T18:38:32.044Z,3.70
2017-12-17T18:40:59.604Z,3.60
2017-12-17T18:43:27.132Z,3.50
2017-12-17T18:45:54.625Z,3.60
2017-12-17T18:48:22.079Z,3.60
2017-12-17T18:50:49.611Z,3.60
2017-12-17T18:53:17.092Z,3.60
2017-12-17T18:55:44.549Z,3.60
2017-12-17T18:58:12.104Z,3.70
2017-12-17T19:00:39.752Z,3.50
2017-12-17T19:03:07.212Z,3.50
2017-12-17T19:05:34.718Z,3.50
2017-12-17T19:08:02.994Z,3.60
2017-12-17T19:10:31.215Z,3.70
2017-12-17T19:12:58.676Z,3.60
2017-12-17T19:15:26.149Z,3.70
2017-12-17T19:17:53.660Z,3.80
2017-12-17T19:20:21.131Z,3.80
2017-12-17T19:22:48.651Z,3.80
2017-12-17T19:25:16.872Z,3.80
2017-12-17T19:27:44.325Z,3.80
2017-12-17T19:30:11.804Z,3.80
2017-12-17T19:32:39.491Z,3.70
2017-12-17T19:35:07.733Z,3.70
2017-12-17T19:37:35.212Z,3.60
2017-12-17T19:40:03.488Z,3.60
2017-12-17T19:42:31.789Z,3.60
2017-12-17T19:45:00.057Z,3.50
2017-12-17T19:47:28.285Z,3.50
2017-12-17T19:49:55.748Z,3.40
2017-12-17T19:52:23.205Z,3.50
2017-12-17T19:54:50.677Z,3.50
2017-12-17T19:57:18.125Z,3.40
2017-12-17T19:59:45.646Z,3.40
2017-12-17T20:02:13.164Z,3.40
2017-12-17T20:04:41.462Z,3.50
2017-12-17T20:07:09.034Z,3.50
2017-12-17T20:09:36.920Z,3.50
2017-12-17T20:12:06.181Z,3.60
2017-12-17T20:14:34.176Z,3.50
2017-12-17T20:17:01.943Z,3.40
2017-12-17T20:19:29.919Z,3.40
2017-12-17T20:21:58.790Z,3.50
2017-12-17T20:24:26.661Z,3.40
2017-12-17T20:26:54.777Z,3.50
2017-12-17T20:29:21.641Z,3.60
2017-12-17T20:31:49.858Z,3.50
2017-12-17T20:34:17.340Z,3.50
2017-12-17T20:36:44.815Z,3.50
2017-12-17T20:39:12.319Z,3.60
2017-12-17T20:41:39.837Z,3.70
2017-12-17T20:44:07.316Z,3.60
2017-12-17T20:46:34.865Z,3.60
2017-12-17T20:49:03.119Z,3.80
2017-12-17T20:51:31.369Z,3.90
2017-12-17T20:53:58.821Z,3.90
2017-12-17T20:56:26.302Z,3.90
2017-12-17T20:58:53.752Z,3.80
2017-12-17T21:01:21.327Z,3.70
2017-12-17T21:03:49.580Z,3.60
2017-12-17T21:06:17.064Z,3.60
2017-12-17T21:08:44.605Z,3.60
2017-12-17T21:11:12.177Z,3.70
2017-12-17T21:13:40.475Z,3.80
2017-12-17T21:16:08.036Z,3.70
2017-12-17T21:18:35.557Z,3.80
2017-12-17T21:21:03.112Z,3.90
2017-12-17T21:23:30.678Z,3.80
2017-12-17T21:25:58.227Z,3.80
2017-12-17T21:28:25.757Z,3.80
2017-12-17T21:30:53.223Z,3.80
2017-12-17T21:33:20.860Z,3.80
2017-12-17T21:35:48.307Z,3.90
2017-12-17T21:38:15.836Z,4.00
2017-12-17T21:40:43.292Z,4.00
2017-12-17T21:43:10.933Z,4.10
2017-12-17T21:45:38.425Z,4.10
2017-12-17T21:48:05.962Z,4.10
2017-12-17T21:50:33.412Z,4.10
2017-12-17T21:53:00.873Z,4.20
2017-12-17T21:55:28.349Z,4.10
2017-12-17T21:57:55.796Z,4.20
2017-12-17T22:00:24.030Z,4.10
2017-12-17T22:02:51.485Z,4.10
2017-12-17T22:05:18.936Z,4.20
2017-12-17T22:07:46.422Z,4.10
2017-12-17T22:10:13.986Z,4.00
2017-12-17T22:12:41.501Z,4.00
2017-12-17T22:15:09.013Z,4.00
2017-12-17T22:17:37.295Z,4.00
2017-12-17T22:20:05.561Z,3.90
2017-12-17T22:22:33.017Z,3.90
2017-12-17T22:25:00.565Z,3.90
2017-12-17T22:27:28.008Z,3.90
2017-12-17T22:29:55.481Z,3.90
2017-12-17T22:32:22.935Z,3.80
2017-12-17T22:34:50.495Z,3.90
2017-12-17T22:37:17.951Z,3.90
2017-12-17T22:39:45.509Z,4.00
2017-12-17T22:42:13.071Z,4.00
2017-12-17T22:44:40.520Z,4.00
2017-12-17T22:47:08.104Z,4.00
2017-12-17T22:49:36.363Z,4.10
2017-12-17T22:52:03.816Z,4.00
2017-12-17T22:54:31.369Z,3.90
2017-12-17T22:56:58.831Z,3.80
2017-12-17T22:59:26.328Z,3.80
2017-12-17T23:01:54.656Z,3.90
2017-12-17T23:04:22.180Z,3.80
2017-12-17T23:06:49.702Z,3.90
2017-12-17T23:09:17.237Z,3.90
2017-12-17T23:11:44.732Z,3.90
2017-12-17T23:14:12.949Z,3.90
2017-12-17T23:16:40.429Z,3.80
2017-12-17T23:19:07.897Z,3.90
2017-12-17T23:21:35.368Z,3.70
2017-12-17T23:24:03.583Z,3.60
2017-12-17T23:26:31.048Z,3.60
2017-12-17T23:28:58.576Z,3.70
2017-12-17T23:31:26.031Z,3.80
2017-12-17T23:33:53.501Z,3.90
2017-12-17T23:36:20.993Z,4.00
2017-12-17T23:38:48.520Z,4.00
2017-12-17T23:41:16.178Z,4.00
2017-12-17T23:43:44.389Z,4.00
2017-12-17T23:46:11.880Z,4.00
2017-12-17T23:48:40.181Z,3.90
2017-12-17T23:51:07.640Z,3.80
2017-12-17T23:53:35.145Z,3.70
2017-12-17T23:56:02.609Z,3.70
2017-12-17T23:58:30.077Z,3.70
